createdAt,value
2019-03-05T00:01:49.505Z,82.81
2019-03-05T00:03:49.079Z,81.29
2019-03-05T00:05:49.113Z,80.05
2019-03-05T00:07:49.329Z,80.07
2019-03-05T00:09:49.953Z,79.42
2019-03-05T00:11:49.569Z,79.15
2019-03-05T00:13:49.367Z,78.79
2019-03-05T00:15:49.378Z,78.46
2019-03-05T00:17:49.194Z,78.43
2019-03-05T00:19:49.395Z,77.36
2019-03-05T00:21:49.610Z,77.74
2019-03-05T00:23:49.213Z,77.30
2019-03-05T00:25:49.434Z,77.60
2019-03-05T00:27:49.446Z,77.33
2019-03-05T00:29:49.351Z,77.18
2019-03-05T00:31:49.361Z,77.97
2019-03-05T00:33:49.583Z,77.86
2019-03-05T00:35:49.390Z,77.93
2019-03-05T00:37:49.297Z,77.33
2019-03-05T00:39:49.294Z,77.94
2019-03-05T00:41:49.279Z,78.16
2019-03-05T00:43:49.317Z,78.52
2019-03-05T00:45:49.542Z,79.06
2019-03-05T00:47:49.562Z,79.18
2019-03-05T00:49:49.340Z,79.01
2019-03-05T00:51:49.468Z,78.83
2019-03-05T00:53:49.202Z,78.39
2019-03-05T00:55:50.005Z,78.77
2019-03-05T00:57:49.414Z,78.42
2019-03-05T00:59:49.609Z,78.41
2019-03-05T01:01:49.433Z,77.33
2019-03-05T01:03:49.449Z,77.28
2019-03-05T01:05:49.464Z,77.51
2019-03-05T01:07:49.475Z,77.32
2019-03-05T01:09:49.482Z,77.62
2019-03-05T01:11:49.390Z,77.52
2019-03-05T01:13:49.197Z,77.70
2019-03-05T01:15:49.206Z,77.97
2019-03-05T01:17:49.160Z,77.80
2019-03-05T01:19:49.236Z,77.72
2019-03-05T01:21:49.243Z,77.85
2019-03-05T01:23:49.210Z,77.91
2019-03-05T01:25:49.678Z,78.31
2019-03-05T01:27:49.467Z,78.25
2019-03-05T01:29:49.421Z,78.37
2019-03-05T01:31:49.144Z,78.69
2019-03-05T01:33:49.392Z,78.92
2019-03-05T01:35:49.432Z,78.95
2019-03-05T01:37:49.234Z,78.37
2019-03-05T01:39:49.864Z,78.98
2019-03-05T01:41:49.391Z,78.91
2019-03-05T01:43:49.133Z,78.73
2019-03-05T01:45:49.893Z,78.75
2019-03-05T01:47:49.306Z,79.15
2019-03-05T01:49:49.238Z,79.06
2019-03-05T01:51:49.727Z,79.23
2019-03-05T01:53:49.532Z,79.18
2019-03-05T01:55:49.752Z,79.67
2019-03-05T01:57:49.149Z,79.14
2019-03-05T01:59:49.778Z,79.44
2019-03-05T02:01:49.475Z,79.04
2019-03-05T02:03:49.285Z,79.97
2019-03-05T02:05:49.249Z,79.21
2019-03-05T02:07:49.514Z,79.00
2019-03-05T02:09:49.937Z,78.93
2019-03-05T02:11:49.457Z,78.87
2019-03-05T02:13:49.479Z,78.42
2019-03-05T02:15:49.352Z,78.62
2019-03-05T02:17:49.370Z,78.46
2019-03-05T02:19:49.386Z,78.61
2019-03-05T02:21:49.581Z,78.74
2019-03-05T02:23:49.809Z,79.00
2019-03-05T02:25:49.355Z,79.52
2019-03-05T02:27:49.417Z,79.64
2019-03-05T02:29:49.329Z,80.31
2019-03-05T02:31:49.355Z,80.80
2019-03-05T02:33:49.669Z,81.30
2019-03-05T02:35:49.474Z,82.08
2019-03-05T02:37:49.280Z,82.57
2019-03-05T02:39:49.619Z,83.09
2019-03-05T02:41:49.435Z,83.31
2019-03-05T02:43:49.580Z,83.38
2019-03-05T02:45:49.516Z,83.67
2019-03-05T02:47:49.441Z,83.66
2019-03-05T02:49:49.247Z,84.32
2019-03-05T02:51:49.317Z,84.23
2019-03-05T02:53:49.636Z,84.47
2019-03-05T02:55:49.715Z,84.78
2019-03-05T02:57:49.277Z,84.77
2019-03-05T02:59:49.494Z,84.34
2019-03-05T03:01:49.522Z,84.67
2019-03-05T03:03:49.308Z,84.65
2019-03-05T03:05:49.202Z,84.52
2019-03-05T03:07:49.451Z,84.23
2019-03-05T03:09:49.471Z,83.92
2019-03-05T03:11:49.487Z,84.27
2019-03-05T03:13:49.310Z,84.09
2019-03-05T03:15:49.566Z,84.23
2019-03-05T03:17:49.516Z,84.04
2019-03-05T03:19:49.424Z,84.04
2019-03-05T03:21:49.442Z,84.15
2019-03-05T03:23:49.239Z,84.06
2019-03-05T03:25:49.459Z,83.61
2019-03-05T03:27:49.771Z,83.60
2019-03-05T03:29:49.205Z,83.87
2019-03-05T03:31:49.692Z,83.72
2019-03-05T03:33:49.314Z,83.72
2019-03-05T03:35:49.521Z,83.71
2019-03-05T03:37:49.276Z,83.56
2019-03-05T03:39:49.739Z,83.79
2019-03-05T03:41:49.494Z,83.36
2019-03-05T03:43:49.525Z,83.33
2019-03-05T03:45:49.654Z,83.05
2019-03-05T03:47:49.478Z,83.21
2019-03-05T03:49:49.494Z,83.22
2019-03-05T03:51:51.407Z,83.35
2019-03-05T03:53:49.323Z,83.45
2019-03-05T03:55:49.480Z,83.94
2019-03-05T03:57:49.520Z,84.09
2019-03-05T03:59:49.753Z,84.55
2019-03-05T04:01:49.508Z,84.17
2019-03-05T04:03:49.380Z,84.51
2019-03-05T04:05:49.597Z,84.65
2019-03-05T04:07:49.812Z,84.22
2019-03-05T04:09:49.725Z,84.72
2019-03-05T04:11:49.470Z,84.93
2019-03-05T04:13:49.328Z,84.89
2019-03-05T04:15:49.754Z,85.15
2019-03-05T04:17:49.977Z,85.00
2019-03-05T04:19:49.834Z,85.12
2019-03-05T04:21:49.888Z,85.22
2019-03-05T04:23:49.504Z,85.21
2019-03-05T04:25:49.706Z,85.78
2019-03-05T04:27:49.308Z,86.60
2019-03-05T04:29:49.513Z,86.68
2019-03-05T04:31:49.530Z,87.07
2019-03-05T04:33:49.492Z,87.07
2019-03-05T04:35:49.858Z,86.65
2019-03-05T04:37:49.413Z,86.97
2019-03-05T04:39:49.377Z,87.22
2019-03-05T04:41:49.587Z,86.83
2019-03-05T04:43:49.344Z,86.98
2019-03-05T04:45:49.409Z,86.74
2019-03-05T04:47:49.548Z,86.98
2019-03-05T04:49:49.432Z,87.06
2019-03-05T04:51:49.643Z,86.66
2019-03-05T04:53:49.662Z,86.92
2019-03-05T04:55:49.545Z,86.66
2019-03-05T04:57:49.467Z,86.11
2019-03-05T04:59:49.907Z,86.73
2019-03-05T05:01:49.805Z,86.78
2019-03-05T05:03:49.514Z,86.97
2019-03-05T05:05:49.831Z,86.69
2019-03-05T05:07:49.506Z,86.72
2019-03-05T05:09:49.542Z,86.80
2019-03-05T05:11:49.532Z,86.59
2019-03-05T05:13:49.506Z,86.63
2019-03-05T05:15:49.579Z,86.77
2019-03-05T05:17:49.595Z,86.51
2019-03-05T05:19:49.387Z,86.61
2019-03-05T05:21:49.409Z,86.87
2019-03-05T05:23:49.643Z,87.16
2019-03-05T05:25:49.636Z,86.90
2019-03-05T05:27:49.651Z,87.16
2019-03-05T05:29:49.859Z,86.88
2019-03-05T05:31:49.674Z,86.86
2019-03-05T05:33:49.484Z,87.04
2019-03-05T05:35:49.905Z,87.47
2019-03-05T05:37:49.662Z,86.88
2019-03-05T05:39:49.726Z,87.45
2019-03-05T05:41:49.728Z,87.63
2019-03-05T05:43:49.537Z,87.49
2019-03-05T05:45:49.616Z,87.24
2019-03-05T05:47:49.457Z,87.39
2019-03-05T05:49:49.525Z,86.89
2019-03-05T05:51:49.485Z,86.24
2019-03-05T05:53:49.482Z,85.84
2019-03-05T05:55:49.691Z,85.58
2019-03-05T05:57:49.733Z,85.43
2019-03-05T05:59:49.737Z,86.10
2019-03-05T06:01:49.649Z,85.90
2019-03-05T06:03:49.394Z,86.12
2019-03-05T06:05:49.673Z,85.60
2019-03-05T06:07:49.893Z,86.12
2019-03-05T06:09:49.382Z,86.70
2019-03-05T06:11:49.706Z,85.79
2019-03-05T06:13:49.707Z,86.24
2019-03-05T06:15:49.616Z,86.34
2019-03-05T06:17:49.482Z,86.19
2019-03-05T06:19:49.757Z,85.99
2019-03-05T06:21:49.547Z,86.17
2019-03-05T06:23:50.133Z,85.87
2019-03-05T06:25:49.795Z,86.06
2019-03-05T06:27:49.522Z,85.86
2019-03-05T06:29:50.006Z,86.36
2019-03-05T06:31:49.619Z,86.20
2019-03-05T06:33:49.737Z,85.90
2019-03-05T06:35:49.731Z,85.87
2019-03-05T06:37:49.541Z,86.05
2019-03-05T06:39:49.550Z,85.43
2019-03-05T06:41:49.984Z,85.77
2019-03-05T06:43:49.607Z,85.19
2019-03-05T06:45:49.490Z,85.44
2019-03-05T06:47:49.469Z,85.25
2019-03-05T06:49:49.718Z,85.37
2019-03-05T06:51:49.684Z,85.14
2019-03-05T06:53:49.677Z,84.69
2019-03-05T06:55:49.755Z,84.60
2019-03-05T06:57:49.568Z,84.59
2019-03-05T06:59:50.211Z,84.88
2019-03-05T07:01:49.685Z,84.67
2019-03-05T07:03:49.653Z,84.42
2019-03-05T07:05:49.702Z,84.32
2019-03-05T07:08:03.958Z,84.16
2019-03-05T07:09:52.901Z,84.12
2019-03-05T07:13:52.974Z,84.32
2019-03-05T07:15:52.958Z,84.54
2019-03-05T07:19:57.995Z,83.89
2019-03-05T07:21:53.119Z,84.31
2019-03-05T07:25:52.900Z,84.02
2019-03-05T07:27:53.173Z,83.75
2019-03-05T07:31:53.343Z,83.35
2019-03-05T07:33:53.083Z,83.42
2019-03-05T07:37:52.981Z,82.06
2019-03-05T07:39:53.011Z,81.72
2019-03-05T07:43:53.160Z,81.32
2019-03-05T07:45:53.037Z,81.77
2019-03-05T07:49:53.068Z,81.36
2019-03-05T07:51:53.008Z,81.32
2019-03-05T07:55:53.204Z,81.12
2019-03-05T07:57:53.124Z,81.17
2019-03-05T08:01:53.146Z,81.38
2019-03-05T08:03:53.176Z,80.76
2019-03-05T08:07:53.293Z,80.32
2019-03-05T08:09:52.983Z,80.48
2019-03-05T08:13:53.179Z,80.34
2019-03-05T08:16:01.874Z,80.69
2019-03-05T08:19:53.122Z,80.47
2019-03-05T08:21:53.041Z,80.25
2019-03-05T08:25:53.067Z,80.40
2019-03-05T08:27:53.089Z,80.16
2019-03-05T08:31:53.122Z,80.45
2019-03-05T08:33:53.044Z,80.46
2019-03-05T08:37:53.129Z,80.21
2019-03-05T08:39:53.170Z,80.69
2019-03-05T08:43:54.361Z,80.70
2019-03-05T08:45:53.063Z,80.92
2019-03-05T08:49:53.086Z,81.03
2019-03-05T08:51:53.090Z,80.78
2019-03-05T08:55:53.149Z,80.17
2019-03-05T08:57:53.159Z,79.80
2019-03-05T09:01:53.206Z,79.72
2019-03-05T09:03:53.312Z,78.81
2019-03-05T09:07:53.033Z,79.66
2019-03-05T09:09:53.228Z,80.34
2019-03-05T09:13:53.038Z,81.43
2019-03-05T09:15:53.063Z,81.89
2019-03-05T09:19:53.201Z,82.72
2019-03-05T09:21:53.221Z,82.81
2019-03-05T09:25:52.985Z,83.55
2019-03-05T09:29:53.014Z,84.20
2019-03-05T09:31:53.142Z,84.67
2019-03-05T09:35:53.075Z,86.04
2019-03-05T09:37:53.066Z,85.88
2019-03-05T09:41:53.186Z,86.49
2019-03-05T09:43:53.213Z,86.85
2019-03-05T09:47:53.043Z,86.98
2019-03-05T09:49:53.179Z,86.16
2019-03-05T09:53:53.086Z,86.26
2019-03-05T09:55:53.247Z,85.83
2019-03-05T09:59:53.238Z,86.42
2019-03-05T10:01:53.226Z,86.59
2019-03-05T10:05:53.057Z,86.58
2019-03-05T10:07:53.056Z,86.43
2019-03-05T10:11:56.723Z,86.09
2019-03-05T10:13:53.145Z,86.05
2019-03-05T10:17:53.116Z,85.87
2019-03-05T10:19:53.104Z,85.36
2019-03-05T10:23:53.133Z,85.61
2019-03-05T10:25:53.155Z,84.93
2019-03-05T10:29:53.068Z,85.92
2019-03-05T10:31:53.091Z,86.30
2019-03-05T10:35:53.226Z,87.34
2019-03-05T10:39:53.146Z,88.18
2019-03-05T10:41:53.279Z,88.44
2019-03-05T10:45:53.294Z,89.05
2019-03-05T10:49:53.186Z,89.35
2019-03-05T10:51:53.198Z,89.00
2019-03-05T10:55:53.094Z,89.61
2019-03-05T10:57:53.342Z,90.10
2019-03-05T11:01:53.277Z,90.98
2019-03-05T11:03:53.295Z,91.04
2019-03-05T11:07:53.198Z,91.30
2019-03-05T11:09:53.194Z,91.75
2019-03-05T11:13:53.194Z,92.01
2019-03-05T11:15:53.180Z,92.02
2019-03-05T11:19:53.178Z,92.05
2019-03-05T11:21:53.188Z,92.49
2019-03-05T11:25:53.204Z,92.96
2019-03-05T11:27:53.283Z,92.87
2019-03-05T11:31:53.249Z,92.84
2019-03-05T11:33:53.248Z,92.07
2019-03-05T11:37:53.830Z,91.95
2019-03-05T11:39:55.345Z,91.99
2019-03-05T11:43:53.290Z,91.99
2019-03-05T11:45:53.330Z,91.83
2019-03-05T11:49:53.351Z,92.07
2019-03-05T11:51:53.366Z,91.92
2019-03-05T11:55:53.227Z,91.33
2019-03-05T11:57:53.539Z,91.31
2019-03-05T12:01:53.307Z,91.44
2019-03-05T12:03:53.334Z,91.21
2019-03-05T12:07:53.381Z,90.97
2019-03-05T12:09:53.353Z,90.40
2019-03-05T12:13:53.394Z,90.83
2019-03-05T12:15:53.293Z,90.67
2019-03-05T12:19:53.288Z,90.78
2019-03-05T12:21:53.327Z,90.65
2019-03-05T12:25:53.358Z,90.83
2019-03-05T12:29:53.284Z,91.28
2019-03-05T12:31:53.265Z,91.00
2019-03-05T12:35:53.201Z,91.11
2019-03-05T12:39:53.218Z,90.80
2019-03-05T12:41:53.216Z,90.74
2019-03-05T12:45:53.206Z,90.84
2019-03-05T12:49:53.394Z,90.57
2019-03-05T12:51:53.288Z,90.62
2019-03-05T12:59:53.336Z,91.23
2019-03-05T13:01:53.185Z,90.96
2019-03-05T13:05:53.251Z,88.95
2019-03-05T13:09:56.872Z,87.86
2019-03-05T13:11:53.523Z,86.75
2019-03-05T13:15:56.438Z,85.31
2019-03-05T13:19:53.736Z,82.60
2019-03-05T13:21:53.431Z,81.57
2019-03-05T13:25:53.376Z,80.37
2019-03-05T13:29:53.414Z,77.30
2019-03-05T13:31:53.441Z,78.05
2019-03-05T13:35:53.452Z,76.44
2019-03-05T13:39:54.957Z,76.61
2019-03-05T13:41:53.897Z,75.72
2019-03-05T13:45:53.293Z,75.80
2019-03-05T13:49:58.815Z,72.49
2019-03-05T13:51:56.080Z,71.96
2019-03-05T13:55:53.460Z,70.45
2019-03-05T13:59:53.509Z,69.60
2019-03-05T14:01:53.490Z,68.74
2019-03-05T14:05:53.410Z,65.20
2019-03-05T14:09:53.471Z,65.07
2019-03-05T14:11:53.351Z,65.12
2019-03-05T14:15:53.477Z,65.38
2019-03-05T14:19:53.518Z,64.77
2019-03-05T14:21:53.509Z,63.58
2019-03-05T14:25:53.918Z,62.74
2019-03-05T14:29:53.454Z,64.10
2019-03-05T14:31:53.490Z,62.96
2019-03-05T14:35:53.469Z,62.25
2019-03-05T14:39:53.509Z,63.48
2019-03-05T14:41:53.558Z,62.51
2019-03-05T14:45:53.601Z,63.81
2019-03-05T14:49:53.381Z,61.59
2019-03-05T14:51:53.398Z,60.81
2019-03-05T14:55:54.652Z,57.80
2019-03-05T14:59:53.458Z,58.90
2019-03-05T15:01:53.495Z,57.35
2019-03-05T15:05:53.564Z,59.42
2019-03-05T15:09:53.363Z,59.03
2019-03-05T15:11:53.395Z,58.67
2019-03-05T15:15:53.419Z,58.08
2019-03-05T15:17:53.465Z,57.39
2019-03-05T15:21:53.692Z,58.36
2019-03-05T15:23:53.576Z,58.32
2019-03-05T15:27:53.639Z,58.26
2019-03-05T15:29:53.491Z,56.29
2019-03-05T15:33:53.634Z,56.77
2019-03-05T15:35:53.445Z,56.72
2019-03-05T15:49:57.629Z,56.77
2019-03-05T15:51:57.272Z,57.32
2019-03-05T15:53:56.872Z,56.32
2019-03-05T15:55:57.496Z,57.20
2019-03-05T15:57:57.184Z,57.69
2019-03-05T15:59:56.848Z,57.60
2019-03-05T16:01:57.129Z,57.50
2019-03-05T16:03:56.879Z,57.10
2019-03-05T16:05:57.788Z,57.83
2019-03-05T16:07:57.370Z,57.65
2019-03-05T16:09:57.305Z,58.05
2019-03-05T16:11:56.979Z,58.11
2019-03-05T16:13:58.002Z,57.96
2019-03-05T16:15:57.204Z,58.13
2019-03-05T16:17:57.422Z,58.25
2019-03-05T16:19:57.019Z,58.85
2019-03-05T16:21:57.287Z,58.82
2019-03-05T16:23:57.040Z,59.33
2019-03-05T16:25:57.057Z,59.73
2019-03-05T16:27:56.759Z,59.97
2019-03-05T16:29:57.250Z,59.98
2019-03-05T16:31:56.892Z,60.97
2019-03-05T16:33:56.653Z,60.51
2019-03-05T16:35:56.906Z,60.85
2019-03-05T16:37:57.782Z,60.51
2019-03-05T16:39:56.937Z,61.54
2019-03-05T16:41:58.180Z,61.95
2019-03-05T16:43:57.372Z,62.60
2019-03-05T16:45:57.378Z,63.35
2019-03-05T16:47:57.265Z,63.39
2019-03-05T16:49:56.940Z,63.94
2019-03-05T16:51:57.350Z,64.08
2019-03-05T16:53:57.129Z,64.49
2019-03-05T16:55:57.431Z,64.46
2019-03-05T16:57:57.239Z,64.76
2019-03-05T16:59:57.053Z,64.68
2019-03-05T17:01:57.473Z,64.86
2019-03-05T17:03:57.689Z,65.02
2019-03-05T17:05:57.496Z,65.24
2019-03-05T17:07:57.207Z,65.45
2019-03-05T17:09:57.241Z,65.28
2019-03-05T17:11:57.216Z,65.95
2019-03-05T17:13:57.341Z,66.35
2019-03-05T17:15:57.143Z,67.06
2019-03-05T17:17:57.361Z,67.81
2019-03-05T17:19:56.966Z,68.03
2019-03-05T17:21:56.973Z,69.07
2019-03-05T17:23:56.988Z,69.38
2019-03-05T17:25:56.795Z,70.26
2019-03-05T17:27:56.913Z,70.50
2019-03-05T17:29:57.118Z,70.81
2019-03-05T17:31:57.032Z,71.35
2019-03-05T17:33:57.045Z,72.03
2019-03-05T17:35:57.057Z,72.40
2019-03-05T17:37:56.861Z,72.75
2019-03-05T17:39:57.392Z,73.82
2019-03-05T17:41:57.302Z,73.63
2019-03-05T17:43:57.402Z,74.00
2019-03-05T17:45:56.820Z,74.25
2019-03-05T17:47:56.925Z,73.93
2019-03-05T17:49:56.857Z,74.68
2019-03-05T17:51:56.942Z,74.82
2019-03-05T17:53:56.955Z,74.78
2019-03-05T17:55:56.970Z,74.98
2019-03-05T17:57:56.868Z,75.10
2019-03-05T17:59:57.404Z,75.96
2019-03-05T18:01:57.319Z,75.68
2019-03-05T18:03:57.424Z,75.72
2019-03-05T18:05:57.647Z,75.77
2019-03-05T18:07:57.238Z,76.38
2019-03-05T18:09:57.461Z,75.88
2019-03-05T18:11:57.759Z,76.43
2019-03-05T18:13:57.278Z,76.55
2019-03-05T18:15:57.499Z,77.08
2019-03-05T18:17:57.508Z,76.93
2019-03-05T18:19:57.385Z,77.21
2019-03-05T18:21:57.411Z,77.32
2019-03-05T18:23:57.423Z,77.45
2019-03-05T18:25:57.305Z,77.91
2019-03-05T18:27:57.366Z,78.35
2019-03-05T18:29:57.233Z,78.25
2019-03-05T18:31:57.318Z,79.24
2019-03-05T18:33:57.335Z,79.43
2019-03-05T18:35:57.281Z,79.02
2019-03-05T18:37:57.178Z,80.04
2019-03-05T18:39:57.427Z,79.84
2019-03-05T18:41:57.240Z,80.31
2019-03-05T18:43:57.377Z,80.52
2019-03-05T18:45:57.467Z,80.99
2019-03-05T18:47:57.470Z,80.46
2019-03-05T18:49:57.379Z,81.12
2019-03-05T18:51:57.244Z,81.08
2019-03-05T18:53:57.509Z,81.48
2019-03-05T18:55:57.521Z,81.63
2019-03-05T18:57:57.450Z,81.88
2019-03-05T18:59:57.748Z,82.75
2019-03-05T19:01:57.296Z,82.79
2019-03-05T19:03:57.380Z,82.07
2019-03-05T19:05:57.373Z,82.36
2019-03-05T19:07:57.387Z,83.03
2019-03-05T19:09:57.193Z,83.04
2019-03-05T19:11:57.292Z,83.02
2019-03-05T19:13:57.254Z,82.99
2019-03-05T19:15:57.434Z,83.71
2019-03-05T19:17:57.204Z,83.56
2019-03-05T19:19:57.457Z,83.86
2019-03-05T19:21:57.329Z,84.31
2019-03-05T19:23:57.356Z,84.89
2019-03-05T19:25:57.488Z,84.88
2019-03-05T19:27:57.705Z,85.17
2019-03-05T19:29:57.515Z,85.63
2019-03-05T19:31:57.434Z,85.50
2019-03-05T19:33:57.417Z,86.40
2019-03-05T19:35:57.551Z,86.49
2019-03-05T19:37:57.149Z,86.37
2019-03-05T19:39:57.274Z,86.62
2019-03-05T19:41:57.384Z,86.93
2019-03-05T19:43:57.464Z,86.85
2019-03-05T19:45:57.405Z,86.97
2019-03-05T19:47:57.176Z,87.07
2019-03-05T19:49:57.429Z,87.17
2019-03-05T19:51:57.336Z,87.43
2019-03-05T19:53:57.452Z,87.58
2019-03-05T19:55:57.459Z,87.25
2019-03-05T19:57:57.373Z,87.48
2019-03-05T19:59:57.378Z,88.06
2019-03-05T20:01:57.499Z,88.20
2019-03-05T20:03:57.508Z,88.15
2019-03-05T20:05:57.522Z,88.37
2019-03-05T20:07:57.543Z,88.62
2019-03-05T20:09:57.545Z,88.42
2019-03-05T20:11:57.558Z,88.73
2019-03-05T20:13:57.442Z,89.13
2019-03-05T20:15:57.584Z,89.18
2019-03-05T20:17:59.132Z,89.02
2019-03-05T20:19:57.350Z,89.53
2019-03-05T20:21:57.303Z,89.54
2019-03-05T20:23:57.297Z,89.78
2019-03-05T20:25:57.358Z,89.88
2019-03-05T20:27:57.396Z,89.91
2019-03-05T20:29:57.462Z,90.08
2019-03-05T20:31:57.236Z,90.31
2019-03-05T20:33:57.347Z,90.20
2019-03-05T20:35:57.291Z,90.23
2019-03-05T20:37:57.260Z,90.30
2019-03-05T20:39:57.510Z,90.60
2019-03-05T20:41:57.526Z,90.56
2019-03-05T20:43:57.410Z,90.63
2019-03-05T20:45:57.454Z,91.02
2019-03-05T20:47:57.417Z,91.34
2019-03-05T20:49:57.571Z,91.15
2019-03-05T20:51:57.373Z,91.18
2019-03-05T20:53:57.141Z,91.76
2019-03-05T20:55:57.172Z,91.39
2019-03-05T20:57:57.330Z,91.58
2019-03-05T20:59:57.127Z,91.82
2019-03-05T21:01:57.362Z,91.79
2019-03-05T21:03:57.201Z,92.03
2019-03-05T21:05:57.455Z,91.67
2019-03-05T21:07:57.267Z,92.11
2019-03-05T21:09:57.415Z,91.98
2019-03-05T21:11:57.403Z,92.24
2019-03-05T21:13:57.093Z,92.76
2019-03-05T21:15:57.014Z,92.81
2019-03-05T21:17:57.207Z,92.62
2019-03-05T21:19:57.062Z,92.29
2019-03-05T21:21:57.011Z,92.38
2019-03-05T21:23:57.155Z,92.47
2019-03-05T21:25:57.174Z,93.30
2019-03-05T21:27:57.100Z,93.13
2019-03-05T21:29:57.397Z,93.17
2019-03-05T21:31:57.211Z,93.42
2019-03-05T21:33:57.265Z,93.46
2019-03-05T21:35:57.148Z,93.62
2019-03-05T21:37:57.893Z,93.67
2019-03-05T21:39:57.099Z,94.05
2019-03-05T21:41:57.159Z,94.09
2019-03-05T21:43:57.008Z,94.20
2019-03-05T21:45:57.082Z,94.26
2019-03-05T21:47:57.295Z,94.57
2019-03-05T21:49:57.310Z,94.48
2019-03-05T21:51:57.107Z,94.37
2019-03-05T21:53:57.122Z,94.35
2019-03-05T21:55:57.132Z,94.74
2019-03-05T21:57:57.081Z,94.56
2019-03-05T21:59:57.168Z,94.53
2019-03-05T22:01:56.999Z,94.64
2019-03-05T22:03:57.090Z,94.92
2019-03-05T22:05:57.093Z,94.55
2019-03-05T22:07:57.204Z,94.95
2019-03-05T22:09:57.088Z,94.85
2019-03-05T22:11:57.225Z,94.79
2019-03-05T22:13:57.478Z,95.25
2019-03-05T22:15:57.458Z,94.97
2019-03-05T22:17:56.974Z,94.83
2019-03-05T22:19:57.277Z,95.13
2019-03-05T22:21:57.083Z,95.26
2019-03-05T22:23:57.211Z,95.33
2019-03-05T22:25:57.108Z,95.08
2019-03-05T22:27:57.239Z,94.95
2019-03-05T22:29:57.127Z,95.01
2019-03-05T22:31:57.074Z,94.87
2019-03-05T22:33:57.148Z,94.99
2019-03-05T22:35:57.362Z,95.02
2019-03-05T22:37:57.377Z,95.29
2019-03-05T22:39:57.087Z,95.18
2019-03-05T22:41:57.193Z,95.14
2019-03-05T22:43:57.132Z,94.99
2019-03-05T22:45:57.150Z,95.24
2019-03-05T22:47:57.227Z,94.96
2019-03-05T22:49:57.028Z,95.19
2019-03-05T22:51:57.255Z,95.09
2019-03-05T22:53:57.173Z,95.08
2019-03-05T22:55:57.282Z,94.98
2019-03-05T22:57:57.098Z,95.14
2019-03-05T22:59:56.990Z,95.15
2019-03-05T23:01:56.902Z,95.05
2019-03-05T23:03:57.115Z,95.39
2019-03-05T23:05:57.338Z,95.51
2019-03-05T23:07:57.348Z,95.53
2019-03-05T23:09:57.155Z,95.28
2019-03-05T23:11:57.062Z,95.28
2019-03-05T23:13:57.146Z,95.59
2019-03-05T23:15:57.403Z,95.64
2019-03-05T23:17:57.309Z,95.45
2019-03-05T23:19:57.004Z,95.63
2019-03-05T23:21:57.219Z,95.46
2019-03-05T23:23:57.252Z,95.28
2019-03-05T23:25:57.183Z,95.68
2019-03-05T23:27:57.254Z,95.68
2019-03-05T23:29:57.278Z,95.59
2019-03-05T23:31:57.015Z,95.69
2019-03-05T23:33:57.211Z,96.01
2019-03-05T23:35:57.211Z,95.99
2019-03-05T23:37:56.916Z,95.61
2019-03-05T23:39:57.039Z,95.70
2019-03-05T23:41:57.039Z,95.66
2019-03-05T23:43:57.082Z,95.64
2019-03-05T23:45:57.067Z,96.05
2019-03-05T23:47:57.173Z,95.71
2019-03-05T23:49:56.971Z,95.73
2019-03-05T23:51:56.982Z,95.76
2019-03-05T23:53:57.078Z,95.89
2019-03-05T23:55:57.218Z,95.74
2019-03-05T23:57:57.431Z,96.03
2019-03-05T23:59:56.985Z,96.01
